createdAt,value
2022-07-26T00:01:32.583Z,96.90
2022-07-26T00:04:05.272Z,96.85
2022-07-26T00:06:34.981Z,96.62
2022-07-26T00:09:05.252Z,96.25
2022-07-26T00:11:36.145Z,96.07
2022-07-26T00:14:08.544Z,95.90
2022-07-26T00:16:39.321Z,95.74
2022-07-26T00:19:11.714Z,95.59
2022-07-26T00:21:42.609Z,95.63
2022-07-26T00:24:12.619Z,95.38
2022-07-26T00:26:42.364Z,95.44
2022-07-26T00:29:12.234Z,95.83
2022-07-26T00:31:42.051Z,95.95
2022-07-26T00:34:14.486Z,95.90
2022-07-26T00:36:44.556Z,96.07
2022-07-26T00:39:14.265Z,95.93
2022-07-26T00:41:44.014Z,95.97
2022-07-26T00:44:14.394Z,96.11
2022-07-26T00:46:45.168Z,96.10
2022-07-26T00:49:17.740Z,96.22
2022-07-26T00:51:47.641Z,96.48
2022-07-26T00:54:20.097Z,96.84
2022-07-26T00:56:54.979Z,97.27
2022-07-26T00:59:25.376Z,97.46
2022-07-26T01:01:56.732Z,97.35
2022-07-26T01:04:29.217Z,97.43
2022-07-26T01:06:59.504Z,97.39
2022-07-26T01:09:29.389Z,97.43
2022-07-26T01:12:01.961Z,97.56
2022-07-26T01:14:31.700Z,97.64
2022-07-26T01:17:01.554Z,97.48
2022-07-26T01:19:34.028Z,97.81
2022-07-26T01:22:09.913Z,97.85
2022-07-26T01:24:42.301Z,97.90
2022-07-26T01:27:12.351Z,97.82
2022-07-26T01:29:42.129Z,98.03
2022-07-26T01:32:12.385Z,98.18
2022-07-26T01:34:42.079Z,98.28
2022-07-26T01:37:14.674Z,98.13
2022-07-26T01:39:45.865Z,98.29
2022-07-26T01:42:15.642Z,98.40
2022-07-26T01:44:45.381Z,98.62
2022-07-26T01:47:15.089Z,98.55
2022-07-26T01:49:44.883Z,98.45
2022-07-26T01:52:17.212Z,98.34
2022-07-26T01:54:46.926Z,98.96
2022-07-26T01:57:16.699Z,100.00
2022-07-26T01:59:46.529Z,100.00
2022-07-26T02:02:16.331Z,100.00
2022-07-26T02:04:58.715Z,100.00
2022-07-26T02:07:32.542Z,100.00
2022-07-26T02:10:03.142Z,100.00
2022-07-26T02:12:33.390Z,100.00
2022-07-26T02:15:03.700Z,100.00
2022-07-26T02:17:33.427Z,100.00
2022-07-26T02:20:03.366Z,100.00
2022-07-26T02:22:35.735Z,100.00
2022-07-26T02:25:05.908Z,100.00
2022-07-26T02:27:35.799Z,100.00
2022-07-26T02:30:05.653Z,100.00
2022-07-26T02:32:35.534Z,100.00
2022-07-26T02:35:05.376Z,100.00
2022-07-26T02:37:43.642Z,100.00
2022-07-26T02:40:19.349Z,100.00
2022-07-26T02:42:49.448Z,100.00
2022-07-26T02:45:19.228Z,100.00
2022-07-26T02:47:50.614Z,100.00
2022-07-26T02:50:21.716Z,100.00
2022-07-26T02:52:55.245Z,100.00
2022-07-26T02:55:27.077Z,100.00
2022-07-26T02:57:57.205Z,100.00
2022-07-26T03:00:29.045Z,100.00
2022-07-26T03:02:59.152Z,100.00
2022-07-26T03:05:29.087Z,100.00
2022-07-26T03:08:01.802Z,100.00
2022-07-26T03:10:31.632Z,100.00
2022-07-26T03:13:01.554Z,100.00
2022-07-26T03:15:31.362Z,100.00
2022-07-26T03:18:01.427Z,100.00
2022-07-26T03:20:31.323Z,100.00
2022-07-26T03:23:03.686Z,100.00
2022-07-26T03:25:33.395Z,100.00
2022-07-26T03:28:08.057Z,100.00
2022-07-26T03:30:38.388Z,100.00
2022-07-26T03:33:08.135Z,100.00
2022-07-26T03:35:37.914Z,99.68
2022-07-26T03:38:10.229Z,100.00
2022-07-26T03:40:40.051Z,99.35
2022-07-26T03:43:09.756Z,99.00
2022-07-26T03:45:40.044Z,98.44
2022-07-26T03:48:10.215Z,98.87
2022-07-26T03:50:43.167Z,98.25
2022-07-26T03:53:15.521Z,97.97
2022-07-26T03:55:57.642Z,98.09
2022-07-26T03:58:27.349Z,98.65
2022-07-26T04:00:57.097Z,98.76
2022-07-26T04:03:26.835Z,99.13
2022-07-26T04:05:57.541Z,98.28
2022-07-26T04:08:30.168Z,97.92
2022-07-26T04:10:59.995Z,97.49
2022-07-26T04:13:29.720Z,98.07
2022-07-26T04:15:59.433Z,97.86
2022-07-26T04:18:29.171Z,98.41
2022-07-26T04:20:58.925Z,97.50
2022-07-26T04:23:31.292Z,97.00
2022-07-26T04:26:01.435Z,96.16
2022-07-26T04:28:31.594Z,95.59
2022-07-26T04:31:02.332Z,94.57
2022-07-26T04:33:33.186Z,94.86
2022-07-26T04:36:03.570Z,95.00
2022-07-26T04:38:35.930Z,94.80
2022-07-26T04:41:05.951Z,94.55
2022-07-26T04:43:35.726Z,94.53
2022-07-26T04:46:05.906Z,94.75
2022-07-26T04:48:35.739Z,94.97
2022-07-26T04:51:05.544Z,95.03
2022-07-26T04:53:37.865Z,94.30
2022-07-26T04:56:08.064Z,94.92
2022-07-26T04:58:37.934Z,95.78
2022-07-26T05:01:10.447Z,95.55
2022-07-26T05:03:40.966Z,94.91
2022-07-26T05:06:10.885Z,95.22
2022-07-26T05:08:43.488Z,95.13
2022-07-26T05:11:13.583Z,93.40
2022-07-26T05:13:43.476Z,93.61
2022-07-26T05:16:13.206Z,93.40
2022-07-26T05:18:49.078Z,93.25
2022-07-26T05:21:19.978Z,93.20
2022-07-26T05:23:52.316Z,92.42
2022-07-26T05:26:22.037Z,91.88
2022-07-26T05:28:51.812Z,90.89
2022-07-26T05:31:21.623Z,91.66
2022-07-26T05:33:51.386Z,91.56
2022-07-26T05:36:21.198Z,91.46
2022-07-26T05:38:53.525Z,92.56
2022-07-26T05:41:23.233Z,92.74
2022-07-26T05:43:52.977Z,93.16
2022-07-26T05:46:22.755Z,93.70
2022-07-26T05:48:52.556Z,94.31
2022-07-26T05:51:22.295Z,94.39
2022-07-26T05:53:54.578Z,94.75
2022-07-26T05:56:24.377Z,94.86
2022-07-26T05:58:54.377Z,93.84
2022-07-26T06:01:24.102Z,92.32
2022-07-26T06:03:54.234Z,91.11
2022-07-26T06:06:23.988Z,90.54
2022-07-26T06:08:56.573Z,90.13
2022-07-26T06:11:26.494Z,89.64
2022-07-26T06:13:56.713Z,87.74
2022-07-26T06:16:26.573Z,86.50
2022-07-26T06:18:56.264Z,85.91
2022-07-26T06:21:26.155Z,86.02
2022-07-26T06:23:58.471Z,85.58
2022-07-26T06:26:28.260Z,85.09
2022-07-26T06:28:57.957Z,85.41
2022-07-26T06:31:27.793Z,85.95
2022-07-26T06:33:57.547Z,86.55
2022-07-26T06:36:30.460Z,86.77
2022-07-26T06:39:03.282Z,86.82
2022-07-26T06:41:33.207Z,85.78
2022-07-26T06:44:02.885Z,85.01
2022-07-26T06:46:32.645Z,84.25
2022-07-26T06:49:02.529Z,83.35
2022-07-26T06:51:32.321Z,84.13
2022-07-26T06:54:06.029Z,84.27
2022-07-26T06:56:36.048Z,83.76
2022-07-26T06:59:09.394Z,83.84
2022-07-26T07:01:51.299Z,83.87
2022-07-26T07:04:29.241Z,84.42
2022-07-26T07:07:05.274Z,85.83
2022-07-26T07:09:39.117Z,87.63
2022-07-26T07:12:10.913Z,88.84
2022-07-26T07:14:41.241Z,87.62
2022-07-26T07:17:15.941Z,85.21
2022-07-26T07:19:48.312Z,84.41
2022-07-26T07:22:18.284Z,82.58
2022-07-26T07:24:50.626Z,82.68
2022-07-26T07:27:20.946Z,82.74
2022-07-26T07:29:50.749Z,82.72
2022-07-26T07:32:20.540Z,81.91
2022-07-26T07:34:50.801Z,81.20
2022-07-26T07:37:20.898Z,81.16
2022-07-26T07:39:53.250Z,80.30
2022-07-26T07:42:23.800Z,80.62
2022-07-26T07:44:53.510Z,81.21
2022-07-26T07:47:23.286Z,80.87
2022-07-26T07:49:53.008Z,81.16
2022-07-26T07:52:22.716Z,81.89
2022-07-26T07:55:11.614Z,81.90
2022-07-26T07:57:44.760Z,81.51
2022-07-26T08:00:19.493Z,81.51
2022-07-26T08:02:57.109Z,81.49
2022-07-26T08:05:26.835Z,82.15
2022-07-26T08:07:56.863Z,82.62
2022-07-26T08:10:29.642Z,81.69
2022-07-26T08:12:59.366Z,82.02
2022-07-26T08:15:29.083Z,81.80
2022-07-26T08:18:00.697Z,81.19
2022-07-26T08:20:31.040Z,80.98
2022-07-26T08:23:00.841Z,80.46
2022-07-26T08:25:33.298Z,80.00
2022-07-26T08:28:03.974Z,79.60
2022-07-26T08:30:33.973Z,79.61
2022-07-26T08:33:04.224Z,79.55
2022-07-26T08:35:34.068Z,79.88
2022-07-26T08:38:03.804Z,79.67
2022-07-26T08:40:36.866Z,79.20
2022-07-26T08:43:07.028Z,79.48
2022-07-26T08:45:37.003Z,79.45
2022-07-26T08:48:17.340Z,78.52
2022-07-26T08:50:48.113Z,78.10
2022-07-26T08:53:18.372Z,78.37
2022-07-26T08:56:06.558Z,78.49
2022-07-26T08:58:40.963Z,79.39
2022-07-26T09:01:13.211Z,78.81
2022-07-26T09:03:44.155Z,78.10
2022-07-26T09:06:16.191Z,78.03
2022-07-26T09:08:47.209Z,77.18
2022-07-26T09:11:34.596Z,76.09
2022-07-26T09:14:06.019Z,76.30
2022-07-26T09:16:40.151Z,76.04
2022-07-26T09:19:22.769Z,75.24
2022-07-26T09:21:55.655Z,73.97
2022-07-26T09:24:36.730Z,72.88
2022-07-26T09:27:11.818Z,72.18
2022-07-26T09:29:49.830Z,72.81
2022-07-26T09:32:21.570Z,72.43
2022-07-26T09:34:57.748Z,72.13
2022-07-26T09:37:38.333Z,71.70
2022-07-26T09:40:10.378Z,71.64
2022-07-26T09:42:57.115Z,70.71
2022-07-26T09:45:27.892Z,71.14
2022-07-26T09:47:57.909Z,70.21
2022-07-26T09:50:31.894Z,70.19
2022-07-26T09:53:09.681Z,70.47
2022-07-26T09:55:56.521Z,70.18
2022-07-26T09:58:30.846Z,70.99
2022-07-26T10:01:02.446Z,70.46
2022-07-26T10:03:33.479Z,70.14
2022-07-26T10:06:04.122Z,68.18
2022-07-26T10:08:34.416Z,68.63
2022-07-26T10:11:08.162Z,67.89
2022-07-26T10:13:40.921Z,68.00
2022-07-26T10:16:34.741Z,68.91
2022-07-26T10:19:05.088Z,68.55
2022-07-26T10:21:35.393Z,68.27
2022-07-26T10:24:08.688Z,66.88
2022-07-26T10:26:45.733Z,67.16
2022-07-26T10:29:29.573Z,65.88
2022-07-26T10:32:23.153Z,65.99
2022-07-26T10:34:53.040Z,66.38
2022-07-26T10:37:30.592Z,65.90
2022-07-26T10:40:22.903Z,66.26
2022-07-26T10:42:52.613Z,65.00
2022-07-26T10:45:26.151Z,65.88
2022-07-26T10:48:15.137Z,64.74
2022-07-26T10:50:47.066Z,64.86
2022-07-26T10:53:21.491Z,65.27
2022-07-26T10:55:54.010Z,65.26
2022-07-26T10:58:24.634Z,64.65
2022-07-26T11:01:02.278Z,63.37
2022-07-26T11:03:41.488Z,64.53
2022-07-26T11:06:15.877Z,64.99
2022-07-26T11:08:48.338Z,65.76
2022-07-26T11:11:31.509Z,65.17
2022-07-26T11:14:09.488Z,65.00
2022-07-26T11:16:43.916Z,63.96
2022-07-26T11:19:19.185Z,65.50
2022-07-26T11:21:50.065Z,64.42
2022-07-26T11:24:19.871Z,63.11
2022-07-26T11:26:50.518Z,64.10
2022-07-26T11:29:38.628Z,62.86
2022-07-26T11:32:20.296Z,64.88
2022-07-26T11:34:50.611Z,66.05
2022-07-26T11:37:20.328Z,66.04
2022-07-26T11:39:50.120Z,65.43
2022-07-26T11:42:22.551Z,65.67
2022-07-26T11:44:54.155Z,65.42
2022-07-26T11:47:27.154Z,64.41
2022-07-26T11:52:46.986Z,64.22
2022-07-26T11:55:16.744Z,64.02
2022-07-26T11:57:46.466Z,64.94
2022-07-26T12:00:18.333Z,66.20
2022-07-26T12:02:55.759Z,64.87
2022-07-26T12:05:26.854Z,65.38
2022-07-26T12:08:03.104Z,67.12
2022-07-26T12:10:33.547Z,67.29
2022-07-26T12:13:11.070Z,67.97
2022-07-26T12:15:48.238Z,67.09
2022-07-26T12:18:31.372Z,67.38
2022-07-26T12:21:05.480Z,67.49
2022-07-26T12:23:48.394Z,68.37
2022-07-26T12:26:23.289Z,66.95
2022-07-26T12:28:53.218Z,65.51
2022-07-26T12:31:30.386Z,66.97
2022-07-26T12:34:03.621Z,65.68
2022-07-26T12:36:36.902Z,65.09
2022-07-26T12:39:07.470Z,65.27
2022-07-26T12:41:38.614Z,66.53
2022-07-26T12:44:11.967Z,66.34
2022-07-26T12:46:45.029Z,64.77
2022-07-26T12:49:17.833Z,65.14
2022-07-26T12:51:47.629Z,64.76
2022-07-26T12:54:17.449Z,65.48
2022-07-26T12:56:47.186Z,63.54
2022-07-26T12:59:18.704Z,63.94
2022-07-26T13:01:48.572Z,64.04
2022-07-26T13:04:21.033Z,65.02
2022-07-26T13:06:50.828Z,64.62
2022-07-26T13:09:20.551Z,62.80
2022-07-26T13:11:50.334Z,62.72
2022-07-26T13:14:20.093Z,63.46
2022-07-26T13:16:49.860Z,63.68
2022-07-26T13:19:22.552Z,62.04
2022-07-26T13:21:53.154Z,60.96
2022-07-26T13:24:23.057Z,61.31
2022-07-26T13:26:53.370Z,62.34
2022-07-26T13:29:23.301Z,62.12
2022-07-26T13:31:53.944Z,62.05
2022-07-26T13:34:29.282Z,59.92
2022-07-26T13:37:08.310Z,61.09
2022-07-26T13:39:38.402Z,60.10
2022-07-26T13:42:08.725Z,60.88
2022-07-26T13:44:38.419Z,61.16
2022-07-26T13:47:08.343Z,61.00
2022-07-26T13:49:40.706Z,62.25
2022-07-26T13:52:15.552Z,62.40
2022-07-26T13:54:46.469Z,62.00
2022-07-26T13:57:16.345Z,62.40
2022-07-26T13:59:46.049Z,61.54
2022-07-26T14:02:16.007Z,62.21
2022-07-26T14:04:48.676Z,62.09
2022-07-26T14:07:18.414Z,62.67
2022-07-26T14:09:48.151Z,62.48
2022-07-26T14:12:17.985Z,63.60
2022-07-26T14:14:47.705Z,63.03
2022-07-26T14:17:17.468Z,63.21
2022-07-26T14:19:51.007Z,64.31
2022-07-26T14:22:20.758Z,65.08
2022-07-26T14:24:50.478Z,67.21
2022-07-26T14:27:20.337Z,68.65
2022-07-26T14:29:50.189Z,68.56
2022-07-26T14:32:22.172Z,68.93
2022-07-26T14:34:54.904Z,68.77
2022-07-26T14:37:42.220Z,68.90
2022-07-26T14:40:16.469Z,67.03
2022-07-26T14:42:58.556Z,68.14
2022-07-26T14:45:28.932Z,67.81
2022-07-26T14:47:59.556Z,66.84
2022-07-26T14:50:46.958Z,68.14
2022-07-26T14:53:22.417Z,67.32
2022-07-26T14:55:52.155Z,67.88
2022-07-26T14:58:22.338Z,68.02
2022-07-26T15:00:53.836Z,67.90
2022-07-26T15:03:23.693Z,67.68
2022-07-26T15:05:56.137Z,68.61
2022-07-26T15:08:26.011Z,68.55
2022-07-26T15:11:38.033Z,67.45
2022-07-26T15:14:08.192Z,68.20
2022-07-26T15:16:38.358Z,67.68
2022-07-26T15:19:08.395Z,67.50
2022-07-26T15:21:40.751Z,67.25
2022-07-26T15:24:14.327Z,67.61
2022-07-26T15:26:45.365Z,68.90
2022-07-26T15:29:16.826Z,70.24
2022-07-26T15:31:46.713Z,70.79
2022-07-26T15:34:17.724Z,71.11
2022-07-26T15:36:50.166Z,70.96
2022-07-26T15:39:19.973Z,70.47
2022-07-26T15:41:50.845Z,70.22
2022-07-26T15:44:24.276Z,70.45
2022-07-26T15:46:55.844Z,69.26
2022-07-26T15:49:26.258Z,69.43
2022-07-26T15:51:58.658Z,67.96
2022-07-26T15:54:28.760Z,68.25
2022-07-26T15:56:58.513Z,68.59
2022-07-26T16:03:01.400Z,69.47
2022-07-26T16:05:31.222Z,68.79
2022-07-26T16:08:03.513Z,68.94
2022-07-26T16:10:33.306Z,68.92
2022-07-26T16:13:03.118Z,69.41
2022-07-26T16:15:32.881Z,69.84
2022-07-26T16:18:06.350Z,69.15
2022-07-26T16:20:37.007Z,70.06
2022-07-26T16:23:09.413Z,69.67
2022-07-26T16:25:39.197Z,69.43
2022-07-26T16:28:10.100Z,68.90
2022-07-26T16:30:39.953Z,69.04
2022-07-26T16:33:09.845Z,69.65
2022-07-26T16:35:39.672Z,68.83
2022-07-26T16:38:12.069Z,68.87
2022-07-26T16:40:41.906Z,69.16
2022-07-26T16:43:12.015Z,69.90
2022-07-26T16:45:42.173Z,73.71
2022-07-26T16:48:12.863Z,76.03
2022-07-26T16:50:43.455Z,75.92
2022-07-26T16:53:15.845Z,76.19
2022-07-26T16:55:47.232Z,74.90
2022-07-26T16:58:17.024Z,74.45
2022-07-26T17:00:47.123Z,74.79
2022-07-26T17:03:17.616Z,75.04
2022-07-26T17:05:47.504Z,75.72
2022-07-26T17:08:21.041Z,77.57
2022-07-26T17:10:50.830Z,77.79
2022-07-26T17:13:20.628Z,81.35
2022-07-26T17:15:50.610Z,82.96
2022-07-26T17:18:20.586Z,85.67
2022-07-26T17:20:50.371Z,86.43
2022-07-26T17:23:22.764Z,89.27
2022-07-26T17:25:52.543Z,89.43
2022-07-26T17:28:22.338Z,89.92
2022-07-26T17:30:52.126Z,89.34
2022-07-26T17:33:22.045Z,88.27
2022-07-26T17:35:51.845Z,87.03
2022-07-26T17:38:24.275Z,85.43
2022-07-26T17:40:56.664Z,85.26
2022-07-26T17:43:36.407Z,84.61
2022-07-26T17:46:07.020Z,83.71
2022-07-26T17:48:36.950Z,84.18
2022-07-26T17:51:06.997Z,82.54
2022-07-26T17:53:39.410Z,81.71
2022-07-26T17:56:09.262Z,82.14
2022-07-26T17:58:39.027Z,81.23
2022-07-26T18:01:09.401Z,79.65
2022-07-26T18:03:39.195Z,78.15
2022-07-26T18:06:09.413Z,78.84
2022-07-26T18:08:41.884Z,77.83
2022-07-26T18:11:12.769Z,77.48
2022-07-26T18:13:42.544Z,77.80
2022-07-26T18:16:13.077Z,78.12
2022-07-26T18:18:43.544Z,77.80
2022-07-26T18:21:13.597Z,78.30
2022-07-26T18:24:06.671Z,78.67
2022-07-26T18:26:35.844Z,78.90
2022-07-26T18:29:05.833Z,78.94
2022-07-26T18:31:35.957Z,78.82
2022-07-26T18:34:06.785Z,79.55
2022-07-26T18:36:36.860Z,78.59
2022-07-26T18:39:09.626Z,79.07
2022-07-26T18:41:39.668Z,78.25
2022-07-26T18:44:09.503Z,78.99
2022-07-26T18:46:42.552Z,78.38
2022-07-26T18:52:31.904Z,78.60
2022-07-26T18:55:08.100Z,78.68
2022-07-26T18:57:38.267Z,78.92
2022-07-26T19:00:09.551Z,79.12
2022-07-26T19:02:39.268Z,77.87
2022-07-26T19:05:09.725Z,77.60
2022-07-26T19:07:40.273Z,78.01
2022-07-26T19:10:13.622Z,77.40
2022-07-26T19:12:43.936Z,76.19
2022-07-26T19:15:14.677Z,75.87
2022-07-26T19:17:45.034Z,76.85
2022-07-26T19:20:15.592Z,77.17
2022-07-26T19:22:47.416Z,76.86
2022-07-26T19:25:20.769Z,76.31
2022-07-26T19:27:50.464Z,76.48
2022-07-26T19:30:20.295Z,75.82
2022-07-26T19:32:50.037Z,75.62
2022-07-26T19:35:22.641Z,76.33
2022-07-26T19:37:52.418Z,76.25
2022-07-26T19:40:24.827Z,76.35
2022-07-26T19:42:54.607Z,76.42
2022-07-26T19:45:24.617Z,76.65
2022-07-26T19:47:54.371Z,77.04
2022-07-26T19:50:24.473Z,77.40
2022-07-26T19:52:54.194Z,77.93
2022-07-26T19:55:26.569Z,77.87
2022-07-26T19:57:56.305Z,77.64
2022-07-26T20:00:26.980Z,77.18
2022-07-26T20:02:56.695Z,77.08
2022-07-26T20:05:26.625Z,76.58
2022-07-26T20:07:56.400Z,76.34
2022-07-26T20:10:31.974Z,77.24
2022-07-26T20:13:02.293Z,77.11
2022-07-26T20:15:32.071Z,77.40
2022-07-26T20:18:01.814Z,77.84
2022-07-26T20:20:31.690Z,78.53
2022-07-26T20:23:02.343Z,78.57
2022-07-26T20:25:34.738Z,78.05
2022-07-26T20:28:04.459Z,77.95
2022-07-26T20:30:34.396Z,77.85
2022-07-26T20:33:04.131Z,78.10
2022-07-26T20:35:34.234Z,78.44
2022-07-26T20:38:04.036Z,78.04
2022-07-26T20:40:36.434Z,77.96
2022-07-26T20:43:07.704Z,78.32
2022-07-26T20:45:37.472Z,78.77
2022-07-26T20:48:08.037Z,79.04
2022-07-26T20:50:38.489Z,79.02
2022-07-26T20:53:08.207Z,79.03
2022-07-26T20:55:40.565Z,78.64
2022-07-26T20:58:10.267Z,78.33
2022-07-26T21:00:40.002Z,78.54
2022-07-26T21:03:10.015Z,78.79
2022-07-26T21:05:39.727Z,78.53
2022-07-26T21:08:09.509Z,78.92
2022-07-26T21:10:42.101Z,79.13
2022-07-26T21:13:12.402Z,79.42
2022-07-26T21:15:42.536Z,79.60
2022-07-26T21:18:12.434Z,79.67
2022-07-26T21:20:43.088Z,79.54
2022-07-26T21:23:17.762Z,79.92
2022-07-26T21:25:57.932Z,79.63
2022-07-26T21:28:29.295Z,79.12
2022-07-26T21:30:59.029Z,78.53
2022-07-26T21:33:28.724Z,77.82
2022-07-26T21:35:58.441Z,77.91
2022-07-26T21:38:29.909Z,77.64
2022-07-26T21:41:02.274Z,77.59
2022-07-26T21:43:32.237Z,78.00
2022-07-26T21:46:02.083Z,77.94
2022-07-26T21:48:32.449Z,77.80
2022-07-26T21:51:02.241Z,77.74
2022-07-26T21:53:32.004Z,77.57
2022-07-26T21:56:05.749Z,77.66
2022-07-26T21:58:36.849Z,77.75
2022-07-26T22:01:07.572Z,77.89
2022-07-26T22:03:39.216Z,77.82
2022-07-26T22:06:10.341Z,77.82
2022-07-26T22:08:40.606Z,77.59
2022-07-26T22:11:20.018Z,77.59
2022-07-26T22:13:49.833Z,77.63
2022-07-26T22:16:19.648Z,78.66
2022-07-26T22:18:49.458Z,79.74
2022-07-26T22:21:19.198Z,81.05
2022-07-26T22:23:49.466Z,81.36
2022-07-26T22:26:26.281Z,81.31
2022-07-26T22:28:56.060Z,80.71
2022-07-26T22:31:26.054Z,80.50
2022-07-26T22:33:55.869Z,78.30
2022-07-26T22:36:25.616Z,77.94
2022-07-26T22:38:55.468Z,77.15
2022-07-26T22:41:31.695Z,77.43
2022-07-26T22:44:02.396Z,77.78
2022-07-26T22:46:32.138Z,77.49
2022-07-26T22:49:01.932Z,77.10
2022-07-26T22:51:31.824Z,76.31
2022-07-26T22:54:01.580Z,75.28
2022-07-26T22:56:34.054Z,75.38
2022-07-26T22:59:03.754Z,75.43
2022-07-26T23:01:33.551Z,75.62
2022-07-26T23:04:03.468Z,75.86
2022-07-26T23:06:35.973Z,75.97
2022-07-26T23:09:05.747Z,76.18
2022-07-26T23:11:38.083Z,76.73
2022-07-26T23:14:07.823Z,77.10
2022-07-26T23:16:37.625Z,77.81
2022-07-26T23:19:07.831Z,77.98
2022-07-26T23:21:37.691Z,78.54
2022-07-26T23:24:07.791Z,78.82
2022-07-26T23:26:40.198Z,79.55
2022-07-26T23:29:10.535Z,79.99
2022-07-26T23:31:42.310Z,80.46
2022-07-26T23:34:12.135Z,80.99
2022-07-26T23:36:41.875Z,81.51
2022-07-26T23:39:11.930Z,82.09
2022-07-26T23:41:44.484Z,82.59
2022-07-26T23:44:14.219Z,83.02
2022-07-26T23:46:44.048Z,83.13
2022-07-26T23:49:14.401Z,83.09
2022-07-26T23:51:44.393Z,82.36
2022-07-26T23:54:14.119Z,81.92
2022-07-26T23:56:47.642Z,81.09
2022-07-26T23:59:17.518Z,80.79
